BEARDSLEY LAKE (BRD)

Elevation: 3398' · STANISLAUS R basin · Operator: US Bureau of Reclamation

Provisional data, subject to change.
Query executed Friday at 8:10:02   clock

Select a sensor type for a plot of data.
Note: Reservoir Flows are daily averages.

Earlier

Date STORAGE    RES CHG    OUTFLOW    PPT INC   
 AF   AF   CFS   INCHES  
02/28/2015 28262 -42 140 0.46
03/01/2015 28457 195 36 0.07
03/02/2015 28561 104 65 0.05
03/03/2015 28668 107 57 0.00
03/04/2015 28771 103 75 0.00
03/05/2015 28883 112 67 0.00
03/06/2015 29001 118 67 0.00
03/07/2015 29095 94 59 0.00
03/08/2015 29198 103 59 0.00
03/09/2015 29321 123 60 0.00
03/10/2015 29419 98 56 0.00
03/11/2015 29537 118 56 0.00
03/12/2015 29641 104 35 0.11
03/13/2015 29717 76 83 0.00
03/14/2015 29863 146 62 0.00
03/15/2015 29990 127 55 0.00
03/16/2015 30110 120 58 0.00
03/17/2015 30214 104 57 0.00
03/18/2015 30300 86 58 0.00
03/19/2015 30375 75 57 0.00
03/20/2015 30446 71 57 0.00
03/21/2015 30533 87 60 0.00
03/22/2015 30637 104 57 0.00
03/23/2015 30728 91 57 0.20
03/24/2015 30819 91 57 0.00
03/25/2015 30900 81 55 0.00
03/26/2015 30986 86 55 0.00
03/27/2015 -- -- -- --

Later | Latest

Warning! This data is preliminary and subject to revision.

Show BRD Map | Plot BRD Data | 1 Month BRD Data | Real-Time BRD Data | BRD Info